sensor_id;sensor_type;location;lat;lon;timestamp;temperature;humidity
54178;DHT22;40085;53.004;6.770;2022-10-23T00:00:21;11.00;99.90
54178;DHT22;40085;53.004;6.770;2022-10-23T00:02:53;11.00;99.90
54178;DHT22;40085;53.004;6.770;2022-10-23T00:05:20;11.10;99.90
54178;DHT22;40085;53.004;6.770;2022-10-23T00:07:54;11.00;99.90
54178;DHT22;40085;53.004;6.770;2022-10-23T00:10:21;11.00;99.90
54178;DHT22;40085;53.004;6.770;2022-10-23T00:12:48;11.00;99.90
54178;DHT22;40085;53.004;6.770;2022-10-23T00:15:15;11.00;99.90
54178;DHT22;40085;53.004;6.770;2022-10-23T00:17:41;11.00;99.90
54178;DHT22;40085;53.004;6.770;2022-10-23T00:20:07;11.00;99.90
54178;DHT22;40085;53.004;6.770;2022-10-23T00:22:33;10.90;99.90
54178;DHT22;40085;53.004;6.770;2022-10-23T00:24:59;11.00;99.90
54178;DHT22;40085;53.004;6.770;2022-10-23T00:27:25;10.90;99.90
54178;DHT22;40085;53.004;6.770;2022-10-23T00:29:50;10.90;99.90
54178;DHT22;40085;53.004;6.770;2022-10-23T00:32:16;10.90;99.90
54178;DHT22;40085;53.004;6.770;2022-10-23T00:34:42;10.90;99.90
54178;DHT22;40085;53.004;6.770;2022-10-23T00:37:07;11.00;99.90
54178;DHT22;40085;53.004;6.770;2022-10-23T00:39:33;10.90;99.90
54178;DHT22;40085;53.004;6.770;2022-10-23T00:41:59;10.90;99.90
54178;DHT22;40085;53.004;6.770;2022-10-23T00:46:53;11.00;99.90
54178;DHT22;40085;53.004;6.770;2022-10-23T00:49:19;10.90;99.90
54178;DHT22;40085;53.004;6.770;2022-10-23T00:51:54;11.00;99.90
54178;DHT22;40085;53.004;6.770;2022-10-23T00:54:24;10.90;99.90
54178;DHT22;40085;53.004;6.770;2022-10-23T00:56:57;10.90;99.90
54178;DHT22;40085;53.004;6.770;2022-10-23T00:59:24;10.90;99.90
54178;DHT22;40085;53.004;6.770;2022-10-23T01:01:50;10.80;99.90
54178;DHT22;40085;53.004;6.770;2022-10-23T01:04:16;10.80;99.90
54178;DHT22;40085;53.004;6.770;2022-10-23T01:06:56;10.80;99.90
54178;DHT22;40085;53.004;6.770;2022-10-23T01:12:47;10.80;99.90
54178;DHT22;40085;53.004;6.770;2022-10-23T01:15:22;10.80;99.90
54178;DHT22;40085;53.004;6.770;2022-10-23T01:20:43;10.70;99.90
54178;DHT22;40085;53.004;6.770;2022-10-23T01:23:21;10.70;99.90
54178;DHT22;40085;53.004;6.770;2022-10-23T01:29:02;10.70;99.90
54178;DHT22;40085;53.004;6.770;2022-10-23T01:31:58;10.70;99.90
54178;DHT22;40085;53.004;6.770;2022-10-23T01:34:29;10.70;99.90
54178;DHT22;40085;53.004;6.770;2022-10-23T01:36:58;10.70;99.90
54178;DHT22;40085;53.004;6.770;2022-10-23T01:39:32;10.70;99.90
54178;DHT22;40085;53.004;6.770;2022-10-23T01:42:09;10.70;99.90
54178;DHT22;40085;53.004;6.770;2022-10-23T01:45:15;10.60;99.90
54178;DHT22;40085;53.004;6.770;2022-10-23T01:47:34;10.70;99.90
54178;DHT22;40085;53.004;6.770;2022-10-23T01:50:02;10.60;99.90
54178;DHT22;40085;53.004;6.770;2022-10-23T01:52:29;10.60;99.90
54178;DHT22;40085;53.004;6.770;2022-10-23T01:54:58;10.60;99.90
54178;DHT22;40085;53.004;6.770;2022-10-23T01:57:25;10.60;99.90
54178;DHT22;40085;53.004;6.770;2022-10-23T01:59:55;10.60;99.90
54178;DHT22;40085;53.004;6.770;2022-10-23T02:02:23;10.50;99.90
54178;DHT22;40085;53.004;6.770;2022-10-23T02:07:29;10.50;99.90
54178;DHT22;40085;53.004;6.770;2022-10-23T02:09:55;10.50;99.90
54178;DHT22;40085;53.004;6.770;2022-10-23T02:12:29;10.50;99.90
54178;DHT22;40085;53.004;6.770;2022-10-23T02:15:04;10.50;99.90
54178;DHT22;40085;53.004;6.770;2022-10-23T02:17:50;10.50;99.90
54178;DHT22;40085;53.004;6.770;2022-10-23T02:20:34;10.50;99.90
54178;DHT22;40085;53.004;6.770;2022-10-23T02:23:14;10.60;99.90
54178;DHT22;40085;53.004;6.770;2022-10-23T02:25:55;10.60;99.90
54178;DHT22;40085;53.004;6.770;2022-10-23T02:28:27;10.60;99.90
54178;DHT22;40085;53.004;6.770;2022-10-23T02:30:57;10.80;99.90
54178;DHT22;40085;53.004;6.770;2022-10-23T02:33:26;10.70;99.90
54178;DHT22;40085;53.004;6.770;2022-10-23T02:35:52;10.70;99.90
54178;DHT22;40085;53.004;6.770;2022-10-23T02:38:36;10.70;99.90
54178;DHT22;40085;53.004;6.770;2022-10-23T02:41:18;10.80;99.90
54178;DHT22;40085;53.004;6.770;2022-10-23T02:52:40;10.80;99.90
54178;DHT22;40085;53.004;6.770;2022-10-23T03:00:48;10.80;99.90
54178;DHT22;40085;53.004;6.770;2022-10-23T03:03:30;10.70;99.90
54178;DHT22;40085;53.004;6.770;2022-10-23T03:05:58;10.70;99.90
54178;DHT22;40085;53.004;6.770;2022-10-23T03:08:23;10.70;99.90
54178;DHT22;40085;53.004;6.770;2022-10-23T03:10:49;10.70;99.90
54178;DHT22;40085;53.004;6.770;2022-10-23T03:13:16;10.60;99.90
54178;DHT22;40085;53.004;6.770;2022-10-23T03:15:42;10.80;99.90
54178;DHT22;40085;53.004;6.770;2022-10-23T03:18:08;10.60;99.90
54178;DHT22;40085;53.004;6.770;2022-10-23T03:20:34;10.90;99.90
54178;DHT22;40085;53.004;6.770;2022-10-23T03:22:59;10.60;99.90
54178;DHT22;40085;53.004;6.770;2022-10-23T03:25:25;10.70;99.90
54178;DHT22;40085;53.004;6.770;2022-10-23T03:27:51;10.60;99.90
54178;DHT22;40085;53.004;6.770;2022-10-23T03:30:17;10.60;99.90
54178;DHT22;40085;53.004;6.770;2022-10-23T03:32:43;10.50;99.90
54178;DHT22;40085;53.004;6.770;2022-10-23T03:35:09;10.50;99.90
54178;DHT22;40085;53.004;6.770;2022-10-23T03:37:34;10.50;99.90
54178;DHT22;40085;53.004;6.770;2022-10-23T03:40:00;10.50;99.90
54178;DHT22;40085;53.004;6.770;2022-10-23T03:42:26;10.50;99.90
54178;DHT22;40085;53.004;6.770;2022-10-23T03:44:52;10.50;99.90
54178;DHT22;40085;53.004;6.770;2022-10-23T03:47:17;10.50;99.90
54178;DHT22;40085;53.004;6.770;2022-10-23T03:49:43;10.50;99.90
54178;DHT22;40085;53.004;6.770;2022-10-23T03:52:09;10.50;99.90
54178;DHT22;40085;53.004;6.770;2022-10-23T03:54:34;10.50;99.90
54178;DHT22;40085;53.004;6.770;2022-10-23T03:57:01;10.50;99.90
54178;DHT22;40085;53.004;6.770;2022-10-23T03:59:26;10.60;99.90
54178;DHT22;40085;53.004;6.770;2022-10-23T04:01:53;10.50;99.90
54178;DHT22;40085;53.004;6.770;2022-10-23T04:04:18;10.50;99.90
54178;DHT22;40085;53.004;6.770;2022-10-23T04:06:44;10.50;99.90
54178;DHT22;40085;53.004;6.770;2022-10-23T04:09:10;10.50;99.90
54178;DHT22;40085;53.004;6.770;2022-10-23T04:11:36;10.40;99.90
54178;DHT22;40085;53.004;6.770;2022-10-23T04:14:02;10.40;99.90
54178;DHT22;40085;53.004;6.770;2022-10-23T04:16:27;10.40;99.90
54178;DHT22;40085;53.004;6.770;2022-10-23T04:18:53;10.60;99.90
54178;DHT22;40085;53.004;6.770;2022-10-23T04:21:19;10.40;99.90
54178;DHT22;40085;53.004;6.770;2022-10-23T04:23:44;10.30;99.90
54178;DHT22;40085;53.004;6.770;2022-10-23T04:26:10;10.30;99.90
54178;DHT22;40085;53.004;6.770;2022-10-23T04:28:36;10.40;99.90
54178;DHT22;40085;53.004;6.770;2022-10-23T04:31:02;10.30;99.90
54178;DHT22;40085;53.004;6.770;2022-10-23T04:33:27;10.30;99.90
54178;DHT22;40085;53.004;6.770;2022-10-23T04:35:53;10.30;99.90
54178;DHT22;40085;53.004;6.770;2022-10-23T04:38:19;10.30;99.90
54178;DHT22;40085;53.004;6.770;2022-10-23T04:40:44;10.30;99.90
54178;DHT22;40085;53.004;6.770;2022-10-23T04:43:10;10.30;99.90
54178;DHT22;40085;53.004;6.770;2022-10-23T04:45:36;10.70;99.90
54178;DHT22;40085;53.004;6.770;2022-10-23T04:48:02;10.40;99.90
54178;DHT22;40085;53.004;6.770;2022-10-23T04:50:28;10.30;99.90
54178;DHT22;40085;53.004;6.770;2022-10-23T04:52:55;10.30;99.90
54178;DHT22;40085;53.004;6.770;2022-10-23T04:55:21;10.30;99.90
54178;DHT22;40085;53.004;6.770;2022-10-23T04:57:47;10.30;99.90
54178;DHT22;40085;53.004;6.770;2022-10-23T05:00:13;10.30;99.90
54178;DHT22;40085;53.004;6.770;2022-10-23T05:02:40;10.30;99.90
54178;DHT22;40085;53.004;6.770;2022-10-23T05:05:06;10.30;99.90
54178;DHT22;40085;53.004;6.770;2022-10-23T05:07:33;10.20;99.90
54178;DHT22;40085;53.004;6.770;2022-10-23T05:09:59;10.20;99.90
54178;DHT22;40085;53.004;6.770;2022-10-23T05:12:25;10.20;99.90
54178;DHT22;40085;53.004;6.770;2022-10-23T05:14:52;10.10;99.90
54178;DHT22;40085;53.004;6.770;2022-10-23T05:17:35;10.10;99.90
54178;DHT22;40085;53.004;6.770;2022-10-23T05:20:06;10.20;99.90
54178;DHT22;40085;53.004;6.770;2022-10-23T05:22:35;10.10;99.90
54178;DHT22;40085;53.004;6.770;2022-10-23T05:25:03;10.10;99.90
54178;DHT22;40085;53.004;6.770;2022-10-23T05:27:28;10.10;99.90
54178;DHT22;40085;53.004;6.770;2022-10-23T05:29:54;10.10;99.90
54178;DHT22;40085;53.004;6.770;2022-10-23T05:32:20;10.30;99.90
54178;DHT22;40085;53.004;6.770;2022-10-23T05:34:47;10.10;99.90
54178;DHT22;40085;53.004;6.770;2022-10-23T05:37:14;10.00;99.90
54178;DHT22;40085;53.004;6.770;2022-10-23T05:39:40;10.00;99.90
54178;DHT22;40085;53.004;6.770;2022-10-23T05:42:06;10.00;99.90
54178;DHT22;40085;53.004;6.770;2022-10-23T05:44:32;10.70;99.90
54178;DHT22;40085;53.004;6.770;2022-10-23T05:46:57;10.00;99.90
54178;DHT22;40085;53.004;6.770;2022-10-23T05:49:24;10.00;99.90
54178;DHT22;40085;53.004;6.770;2022-10-23T05:51:50;10.00;99.90
54178;DHT22;40085;53.004;6.770;2022-10-23T05:54:15;10.00;99.90
54178;DHT22;40085;53.004;6.770;2022-10-23T05:56:41;10.00;99.90
54178;DHT22;40085;53.004;6.770;2022-10-23T05:59:07;10.00;99.90
54178;DHT22;40085;53.004;6.770;2022-10-23T06:01:34;10.00;99.90
54178;DHT22;40085;53.004;6.770;2022-10-23T06:04:01;9.90;99.90
54178;DHT22;40085;53.004;6.770;2022-10-23T06:06:26;10.00;99.90
54178;DHT22;40085;53.004;6.770;2022-10-23T06:08:52;10.00;99.90
54178;DHT22;40085;53.004;6.770;2022-10-23T06:11:18;10.00;99.90
54178;DHT22;40085;53.004;6.770;2022-10-23T06:13:45;10.00;99.90
54178;DHT22;40085;53.004;6.770;2022-10-23T06:16:17;10.00;99.90
54178;DHT22;40085;53.004;6.770;2022-10-23T06:18:44;10.00;99.90
54178;DHT22;40085;53.004;6.770;2022-10-23T06:21:14;10.00;99.90
54178;DHT22;40085;53.004;6.770;2022-10-23T06:23:41;10.00;99.90
54178;DHT22;40085;53.004;6.770;2022-10-23T06:26:08;10.00;99.90
54178;DHT22;40085;53.004;6.770;2022-10-23T06:28:35;10.00;99.90
54178;DHT22;40085;53.004;6.770;2022-10-23T06:31:09;10.10;99.90
54178;DHT22;40085;53.004;6.770;2022-10-23T06:33:35;10.10;99.90
54178;DHT22;40085;53.004;6.770;2022-10-23T06:36:01;10.10;99.90
54178;DHT22;40085;53.004;6.770;2022-10-23T06:38:28;10.10;99.90
54178;DHT22;40085;53.004;6.770;2022-10-23T06:40:56;10.10;99.90
54178;DHT22;40085;53.004;6.770;2022-10-23T06:43:22;10.10;99.90
54178;DHT22;40085;53.004;6.770;2022-10-23T06:45:48;10.20;99.90
54178;DHT22;40085;53.004;6.770;2022-10-23T06:48:14;10.10;99.90
54178;DHT22;40085;53.004;6.770;2022-10-23T06:50:40;10.10;99.90
54178;DHT22;40085;53.004;6.770;2022-10-23T06:53:06;10.20;99.90
54178;DHT22;40085;53.004;6.770;2022-10-23T06:55:32;10.20;99.90
54178;DHT22;40085;53.004;6.770;2022-10-23T06:57:58;10.20;99.90
54178;DHT22;40085;53.004;6.770;2022-10-23T07:00:24;10.20;99.90
54178;DHT22;40085;53.004;6.770;2022-10-23T07:02:50;11.20;99.90
54178;DHT22;40085;53.004;6.770;2022-10-23T07:05:17;10.30;99.90
54178;DHT22;40085;53.004;6.770;2022-10-23T07:07:43;10.40;99.90
54178;DHT22;40085;53.004;6.770;2022-10-23T07:10:09;10.40;99.90
54178;DHT22;40085;53.004;6.770;2022-10-23T07:12:35;10.40;99.90
54178;DHT22;40085;53.004;6.770;2022-10-23T07:15:00;10.50;99.90
54178;DHT22;40085;53.004;6.770;2022-10-23T07:17:28;10.50;99.90
54178;DHT22;40085;53.004;6.770;2022-10-23T07:19:53;10.50;99.90
54178;DHT22;40085;53.004;6.770;2022-10-23T07:22:19;10.50;99.90
54178;DHT22;40085;53.004;6.770;2022-10-23T07:24:45;10.50;99.90
54178;DHT22;40085;53.004;6.770;2022-10-23T07:27:10;10.60;99.90
54178;DHT22;40085;53.004;6.770;2022-10-23T07:29:36;10.50;99.90
54178;DHT22;40085;53.004;6.770;2022-10-23T07:32:02;10.60;99.90
54178;DHT22;40085;53.004;6.770;2022-10-23T07:34:29;10.60;99.90
54178;DHT22;40085;53.004;6.770;2022-10-23T07:36:56;10.70;99.90
54178;DHT22;40085;53.004;6.770;2022-10-23T07:39:21;10.70;99.90
54178;DHT22;40085;53.004;6.770;2022-10-23T07:41:48;10.70;99.90
54178;DHT22;40085;53.004;6.770;2022-10-23T07:44:13;10.70;99.90
54178;DHT22;40085;53.004;6.770;2022-10-23T07:46:39;10.80;99.90
54178;DHT22;40085;53.004;6.770;2022-10-23T07:49:05;10.80;99.90
54178;DHT22;40085;53.004;6.770;2022-10-23T07:51:31;10.80;99.90
54178;DHT22;40085;53.004;6.770;2022-10-23T07:53:56;10.90;99.90
54178;DHT22;40085;53.004;6.770;2022-10-23T07:56:24;10.90;99.90
54178;DHT22;40085;53.004;6.770;2022-10-23T07:58:51;11.20;99.90
54178;DHT22;40085;53.004;6.770;2022-10-23T08:03:57;11.10;99.90
54178;DHT22;40085;53.004;6.770;2022-10-23T08:06:23;11.20;99.90
54178;DHT22;40085;53.004;6.770;2022-10-23T08:08:48;11.20;99.90
54178;DHT22;40085;53.004;6.770;2022-10-23T08:11:16;11.30;99.90
54178;DHT22;40085;53.004;6.770;2022-10-23T08:13:42;11.30;99.90
54178;DHT22;40085;53.004;6.770;2022-10-23T08:16:08;11.40;99.90
54178;DHT22;40085;53.004;6.770;2022-10-23T08:18:34;11.40;99.90
54178;DHT22;40085;53.004;6.770;2022-10-23T08:21:02;11.50;99.90
54178;DHT22;40085;53.004;6.770;2022-10-23T08:23:28;11.50;99.90
54178;DHT22;40085;53.004;6.770;2022-10-23T08:25:59;11.60;99.90
54178;DHT22;40085;53.004;6.770;2022-10-23T08:28:26;11.60;99.90
54178;DHT22;40085;53.004;6.770;2022-10-23T08:30:52;11.70;99.90
54178;DHT22;40085;53.004;6.770;2022-10-23T08:33:18;11.80;99.90
54178;DHT22;40085;53.004;6.770;2022-10-23T08:35:44;11.90;99.90
54178;DHT22;40085;53.004;6.770;2022-10-23T08:38:10;11.90;99.90
54178;DHT22;40085;53.004;6.770;2022-10-23T08:40:36;12.00;99.90
54178;DHT22;40085;53.004;6.770;2022-10-23T08:43:05;12.00;99.90
54178;DHT22;40085;53.004;6.770;2022-10-23T08:45:52;12.10;99.90
54178;DHT22;40085;53.004;6.770;2022-10-23T08:48:25;12.20;99.90
54178;DHT22;40085;53.004;6.770;2022-10-23T08:50:56;12.30;99.90
54178;DHT22;40085;53.004;6.770;2022-10-23T08:53:28;12.40;99.90
54178;DHT22;40085;53.004;6.770;2022-10-23T08:56:02;12.40;99.90
54178;DHT22;40085;53.004;6.770;2022-10-23T08:58:37;12.50;99.90
54178;DHT22;40085;53.004;6.770;2022-10-23T09:01:32;12.50;99.90
54178;DHT22;40085;53.004;6.770;2022-10-23T09:03:59;12.60;99.90
54178;DHT22;40085;53.004;6.770;2022-10-23T09:12:08;12.90;99.90
54178;DHT22;40085;53.004;6.770;2022-10-23T09:22:37;13.10;99.90
54178;DHT22;40085;53.004;6.770;2022-10-23T09:25:08;13.10;99.90
54178;DHT22;40085;53.004;6.770;2022-10-23T09:27:35;13.20;99.90
54178;DHT22;40085;53.004;6.770;2022-10-23T09:30:00;13.30;99.90
54178;DHT22;40085;53.004;6.770;2022-10-23T09:32:36;13.30;99.90
54178;DHT22;40085;53.004;6.770;2022-10-23T09:35:03;13.40;99.90
54178;DHT22;40085;53.004;6.770;2022-10-23T09:37:32;13.50;99.90
54178;DHT22;40085;53.004;6.770;2022-10-23T09:40:15;13.50;99.90
54178;DHT22;40085;53.004;6.770;2022-10-23T09:43:01;13.50;99.90
54178;DHT22;40085;53.004;6.770;2022-10-23T09:45:33;13.60;99.90
54178;DHT22;40085;53.004;6.770;2022-10-23T09:48:18;13.60;99.90
54178;DHT22;40085;53.004;6.770;2022-10-23T09:50:54;13.70;99.90
54178;DHT22;40085;53.004;6.770;2022-10-23T09:53:35;13.70;99.90
54178;DHT22;40085;53.004;6.770;2022-10-23T09:56:19;13.80;99.90
54178;DHT22;40085;53.004;6.770;2022-10-23T09:59:04;13.80;99.90
54178;DHT22;40085;53.004;6.770;2022-10-23T10:01:33;13.90;99.90
54178;DHT22;40085;53.004;6.770;2022-10-23T10:04:00;14.00;99.90
54178;DHT22;40085;53.004;6.770;2022-10-23T10:06:32;14.00;99.90
54178;DHT22;40085;53.004;6.770;2022-10-23T10:09:01;14.20;99.90
54178;DHT22;40085;53.004;6.770;2022-10-23T10:11:45;14.20;99.90
54178;DHT22;40085;53.004;6.770;2022-10-23T10:20:59;14.50;99.90
54178;DHT22;40085;53.004;6.770;2022-10-23T10:26:36;14.80;99.90
54178;DHT22;40085;53.004;6.770;2022-10-23T10:32:09;15.00;99.90
54178;DHT22;40085;53.004;6.770;2022-10-23T10:34:52;15.00;99.90
54178;DHT22;40085;53.004;6.770;2022-10-23T10:37:53;15.10;99.90
54178;DHT22;40085;53.004;6.770;2022-10-23T10:40:34;15.10;99.90
54178;DHT22;40085;53.004;6.770;2022-10-23T10:49:39;15.30;99.90
54178;DHT22;40085;53.004;6.770;2022-10-23T10:51:54;15.30;99.90
54178;DHT22;40085;53.004;6.770;2022-10-23T11:00:02;15.50;99.90
54178;DHT22;40085;53.004;6.770;2022-10-23T11:02:41;15.60;99.90
54178;DHT22;40085;53.004;6.770;2022-10-23T11:05:33;15.80;99.90
54178;DHT22;40085;53.004;6.770;2022-10-23T11:10:45;15.50;99.90
54178;DHT22;40085;53.004;6.770;2022-10-23T11:13:36;15.60;99.90
54178;DHT22;40085;53.004;6.770;2022-10-23T11:18:31;15.50;99.90
54178;DHT22;40085;53.004;6.770;2022-10-23T11:23:42;15.50;99.90
54178;DHT22;40085;53.004;6.770;2022-10-23T11:37:28;15.40;99.90
54178;DHT22;40085;53.004;6.770;2022-10-23T11:45:27;15.40;99.90
54178;DHT22;40085;53.004;6.770;2022-10-23T11:48:05;15.50;99.90
54178;DHT22;40085;53.004;6.770;2022-10-23T11:50:52;15.50;99.90
54178;DHT22;40085;53.004;6.770;2022-10-23T11:53:35;15.40;99.90
54178;DHT22;40085;53.004;6.770;2022-10-23T12:03:59;15.50;99.90
54178;DHT22;40085;53.004;6.770;2022-10-23T12:06:31;15.50;99.90
54178;DHT22;40085;53.004;6.770;2022-10-23T12:09:07;15.50;99.90
54178;DHT22;40085;53.004;6.770;2022-10-23T12:11:42;15.50;99.90
54178;DHT22;40085;53.004;6.770;2022-10-23T12:14:26;15.60;99.90
54178;DHT22;40085;53.004;6.770;2022-10-23T12:16:51;15.60;99.90
54178;DHT22;40085;53.004;6.770;2022-10-23T12:19:20;15.60;99.90
54178;DHT22;40085;53.004;6.770;2022-10-23T12:21:49;15.70;99.90
54178;DHT22;40085;53.004;6.770;2022-10-23T12:32:35;15.80;99.90
54178;DHT22;40085;53.004;6.770;2022-10-23T12:40:09;15.90;99.90
54178;DHT22;40085;53.004;6.770;2022-10-23T12:42:36;16.00;99.90
54178;DHT22;40085;53.004;6.770;2022-10-23T12:45:18;16.00;99.90
54178;DHT22;40085;53.004;6.770;2022-10-23T12:47:46;15.90;99.90
54178;DHT22;40085;53.004;6.770;2022-10-23T12:50:24;16.00;99.90
54178;DHT22;40085;53.004;6.770;2022-10-23T12:52:54;16.00;99.90
54178;DHT22;40085;53.004;6.770;2022-10-23T12:55:22;16.00;99.90
54178;DHT22;40085;53.004;6.770;2022-10-23T12:57:48;16.10;99.90
54178;DHT22;40085;53.004;6.770;2022-10-23T13:00:17;16.00;99.90
54178;DHT22;40085;53.004;6.770;2022-10-23T13:02:44;16.00;99.90
54178;DHT22;40085;53.004;6.770;2022-10-23T13:05:19;16.00;99.90
54178;DHT22;40085;53.004;6.770;2022-10-23T13:07:46;16.00;99.90
54178;DHT22;40085;53.004;6.770;2022-10-23T13:10:14;16.00;99.90
54178;DHT22;40085;53.004;6.770;2022-10-23T13:12:43;16.10;99.90
54178;DHT22;40085;53.004;6.770;2022-10-23T13:15:17;16.10;99.90
54178;DHT22;40085;53.004;6.770;2022-10-23T13:17:59;16.00;99.90
54178;DHT22;40085;53.004;6.770;2022-10-23T13:20:27;16.00;99.90
54178;DHT22;40085;53.004;6.770;2022-10-23T13:23:23;16.00;99.90
54178;DHT22;40085;53.004;6.770;2022-10-23T13:25:59;16.00;99.90
54178;DHT22;40085;53.004;6.770;2022-10-23T13:33:39;16.10;99.90
54178;DHT22;40085;53.004;6.770;2022-10-23T13:38:40;16.10;99.90
54178;DHT22;40085;53.004;6.770;2022-10-23T13:41:17;16.10;99.90
54178;DHT22;40085;53.004;6.770;2022-10-23T13:43:45;16.10;99.90
54178;DHT22;40085;53.004;6.770;2022-10-23T13:46:15;16.10;99.90
54178;DHT22;40085;53.004;6.770;2022-10-23T13:48:41;16.00;99.90
54178;DHT22;40085;53.004;6.770;2022-10-23T13:51:34;16.00;99.90
54178;DHT22;40085;53.004;6.770;2022-10-23T13:54:01;16.00;99.90
54178;DHT22;40085;53.004;6.770;2022-10-23T13:56:27;16.00;99.90
54178;DHT22;40085;53.004;6.770;2022-10-23T13:58:53;16.00;99.90
54178;DHT22;40085;53.004;6.770;2022-10-23T14:01:28;16.00;99.90
54178;DHT22;40085;53.004;6.770;2022-10-23T14:03:56;16.00;99.90
54178;DHT22;40085;53.004;6.770;2022-10-23T14:06:22;16.00;99.90
54178;DHT22;40085;53.004;6.770;2022-10-23T14:08:47;16.00;99.90
54178;DHT22;40085;53.004;6.770;2022-10-23T14:11:15;15.90;99.90
54178;DHT22;40085;53.004;6.770;2022-10-23T14:13:42;15.90;99.90
54178;DHT22;40085;53.004;6.770;2022-10-23T14:16:10;15.90;99.90
54178;DHT22;40085;53.004;6.770;2022-10-23T14:18:36;15.90;99.90
54178;DHT22;40085;53.004;6.770;2022-10-23T14:21:07;15.90;99.90
54178;DHT22;40085;53.004;6.770;2022-10-23T14:23:33;15.90;99.90
54178;DHT22;40085;53.004;6.770;2022-10-23T14:26:06;15.90;99.90
54178;DHT22;40085;53.004;6.770;2022-10-23T14:28:32;15.80;99.90
54178;DHT22;40085;53.004;6.770;2022-10-23T14:31:03;15.80;99.90
54178;DHT22;40085;53.004;6.770;2022-10-23T14:33:29;15.80;99.90
54178;DHT22;40085;53.004;6.770;2022-10-23T14:35:54;15.80;99.90
54178;DHT22;40085;53.004;6.770;2022-10-23T14:38:20;15.80;99.90
54178;DHT22;40085;53.004;6.770;2022-10-23T14:40:46;15.70;99.90
54178;DHT22;40085;53.004;6.770;2022-10-23T14:43:11;15.70;99.90
54178;DHT22;40085;53.004;6.770;2022-10-23T14:45:37;15.70;99.90
54178;DHT22;40085;53.004;6.770;2022-10-23T14:48:03;15.70;99.90
54178;DHT22;40085;53.004;6.770;2022-10-23T14:50:34;15.70;99.90
54178;DHT22;40085;53.004;6.770;2022-10-23T14:53:00;15.70;99.90
54178;DHT22;40085;53.004;6.770;2022-10-23T14:55:26;15.60;99.90
54178;DHT22;40085;53.004;6.770;2022-10-23T14:57:55;15.70;99.90
54178;DHT22;40085;53.004;6.770;2022-10-23T15:00:22;15.70;99.90
54178;DHT22;40085;53.004;6.770;2022-10-23T15:02:48;15.70;99.90
54178;DHT22;40085;53.004;6.770;2022-10-23T15:05:14;15.70;99.90
54178;DHT22;40085;53.004;6.770;2022-10-23T15:07:40;15.70;99.90
54178;DHT22;40085;53.004;6.770;2022-10-23T15:10:06;15.70;99.90
54178;DHT22;40085;53.004;6.770;2022-10-23T15:12:34;15.70;99.90
54178;DHT22;40085;53.004;6.770;2022-10-23T15:15:00;15.70;99.90
54178;DHT22;40085;53.004;6.770;2022-10-23T15:17:26;15.60;99.90
54178;DHT22;40085;53.004;6.770;2022-10-23T15:19:52;15.60;99.90
54178;DHT22;40085;53.004;6.770;2022-10-23T15:22:18;15.60;99.90
54178;DHT22;40085;53.004;6.770;2022-10-23T15:24:44;15.60;99.90
54178;DHT22;40085;53.004;6.770;2022-10-23T15:27:10;15.60;99.90
54178;DHT22;40085;53.004;6.770;2022-10-23T15:29:36;15.60;99.90
54178;DHT22;40085;53.004;6.770;2022-10-23T15:32:02;15.60;99.90
54178;DHT22;40085;53.004;6.770;2022-10-23T15:34:30;15.60;99.90
54178;DHT22;40085;53.004;6.770;2022-10-23T15:36:57;15.50;99.90
54178;DHT22;40085;53.004;6.770;2022-10-23T15:39:26;15.50;99.90
54178;DHT22;40085;53.004;6.770;2022-10-23T15:41:54;15.50;99.90
54178;DHT22;40085;53.004;6.770;2022-10-23T15:44:23;15.50;99.90
54178;DHT22;40085;53.004;6.770;2022-10-23T15:46:49;15.40;99.90
54178;DHT22;40085;53.004;6.770;2022-10-23T15:49:17;15.40;99.90
54178;DHT22;40085;53.004;6.770;2022-10-23T15:51:44;15.40;99.90
54178;DHT22;40085;53.004;6.770;2022-10-23T15:54:13;15.40;99.90
54178;DHT22;40085;53.004;6.770;2022-10-23T15:56:42;15.40;99.90
54178;DHT22;40085;53.004;6.770;2022-10-23T15:59:08;15.30;99.90
54178;DHT22;40085;53.004;6.770;2022-10-23T16:01:33;15.30;99.90
54178;DHT22;40085;53.004;6.770;2022-10-23T16:03:59;15.20;99.90
54178;DHT22;40085;53.004;6.770;2022-10-23T16:06:25;15.20;99.90
54178;DHT22;40085;53.004;6.770;2022-10-23T16:08:51;15.10;99.90
54178;DHT22;40085;53.004;6.770;2022-10-23T16:11:25;15.10;99.90
54178;DHT22;40085;53.004;6.770;2022-10-23T16:13:53;15.00;99.90
54178;DHT22;40085;53.004;6.770;2022-10-23T16:16:19;15.00;99.90
54178;DHT22;40085;53.004;6.770;2022-10-23T16:18:45;15.00;99.90
54178;DHT22;40085;53.004;6.770;2022-10-23T16:21:22;14.90;99.90
54178;DHT22;40085;53.004;6.770;2022-10-23T16:23:49;14.90;99.90
54178;DHT22;40085;53.004;6.770;2022-10-23T16:26:15;14.90;99.90
54178;DHT22;40085;53.004;6.770;2022-10-23T16:28:41;14.80;99.90
54178;DHT22;40085;53.004;6.770;2022-10-23T16:31:10;14.80;99.90
54178;DHT22;40085;53.004;6.770;2022-10-23T16:33:36;14.80;99.90
54178;DHT22;40085;53.004;6.770;2022-10-23T16:36:03;14.80;99.90
54178;DHT22;40085;53.004;6.770;2022-10-23T16:38:29;14.70;99.90
54178;DHT22;40085;53.004;6.770;2022-10-23T16:40:54;14.70;99.90
54178;DHT22;40085;53.004;6.770;2022-10-23T16:43:20;14.70;99.90
54178;DHT22;40085;53.004;6.770;2022-10-23T16:45:46;14.70;99.90
54178;DHT22;40085;53.004;6.770;2022-10-23T16:48:12;14.70;99.90
54178;DHT22;40085;53.004;6.770;2022-10-23T16:50:39;14.60;99.90
54178;DHT22;40085;53.004;6.770;2022-10-23T16:53:04;14.60;99.90
54178;DHT22;40085;53.004;6.770;2022-10-23T16:55:30;14.60;99.90
54178;DHT22;40085;53.004;6.770;2022-10-23T16:57:56;14.50;99.90
54178;DHT22;40085;53.004;6.770;2022-10-23T17:00:25;14.50;99.90
54178;DHT22;40085;53.004;6.770;2022-10-23T17:03:02;14.40;99.90
54178;DHT22;40085;53.004;6.770;2022-10-23T17:05:32;14.40;99.90
54178;DHT22;40085;53.004;6.770;2022-10-23T17:07:58;14.30;99.90
54178;DHT22;40085;53.004;6.770;2022-10-23T17:10:24;14.40;99.90
54178;DHT22;40085;53.004;6.770;2022-10-23T17:12:50;14.30;99.90
54178;DHT22;40085;53.004;6.770;2022-10-23T17:15:17;14.30;99.90
54178;DHT22;40085;53.004;6.770;2022-10-23T17:17:44;14.30;99.90
54178;DHT22;40085;53.004;6.770;2022-10-23T17:20:10;14.30;99.90
54178;DHT22;40085;53.004;6.770;2022-10-23T17:22:36;14.30;99.90
54178;DHT22;40085;53.004;6.770;2022-10-23T17:25:04;14.30;99.90
54178;DHT22;40085;53.004;6.770;2022-10-23T17:27:30;14.40;99.90
54178;DHT22;40085;53.004;6.770;2022-10-23T17:29:56;14.40;99.90
54178;DHT22;40085;53.004;6.770;2022-10-23T17:32:22;14.40;99.90
54178;DHT22;40085;53.004;6.770;2022-10-23T17:34:48;14.40;99.90
54178;DHT22;40085;53.004;6.770;2022-10-23T17:37:14;14.40;99.90
54178;DHT22;40085;53.004;6.770;2022-10-23T17:39:40;14.40;99.90
54178;DHT22;40085;53.004;6.770;2022-10-23T17:42:05;14.40;99.90
54178;DHT22;40085;53.004;6.770;2022-10-23T17:44:31;14.50;99.90